sensor_id;sensor_type;location;lat;lon;timestamp;temperature;humidity
14934;DHT22;7560;51.364;12.384;2023-02-23T00:02:01;8.60;99.90
14934;DHT22;7560;51.364;12.384;2023-02-23T00:07:05;8.60;99.90
14934;DHT22;7560;51.364;12.384;2023-02-23T00:12:07;8.50;99.90
14934;DHT22;7560;51.364;12.384;2023-02-23T00:17:11;8.50;99.90
14934;DHT22;7560;51.364;12.384;2023-02-23T00:22:15;8.50;99.90
14934;DHT22;7560;51.364;12.384;2023-02-23T00:27:17;8.50;99.90
14934;DHT22;7560;51.364;12.384;2023-02-23T00:32:22;8.50;99.90
14934;DHT22;7560;51.364;12.384;2023-02-23T00:37:25;8.40;99.90
14934;DHT22;7560;51.364;12.384;2023-02-23T00:42:27;8.40;99.90
14934;DHT22;7560;51.364;12.384;2023-02-23T00:47:33;8.50;99.90
14934;DHT22;7560;51.364;12.384;2023-02-23T00:52:36;8.40;99.90
14934;DHT22;7560;51.364;12.384;2023-02-23T00:57:38;8.30;99.90
14934;DHT22;7560;51.364;12.384;2023-02-23T01:02:41;8.50;99.90
14934;DHT22;7560;51.364;12.384;2023-02-23T01:07:43;8.30;99.90
14934;DHT22;7560;51.364;12.384;2023-02-23T01:12:49;8.30;99.90
14934;DHT22;7560;51.364;12.384;2023-02-23T01:17:52;8.10;99.90
14934;DHT22;7560;51.364;12.384;2023-02-23T01:22:53;8.10;99.90
14934;DHT22;7560;51.364;12.384;2023-02-23T01:27:55;8.10;99.90
14934;DHT22;7560;51.364;12.384;2023-02-23T01:32:57;8.10;99.90
14934;DHT22;7560;51.364;12.384;2023-02-23T01:37:59;7.90;99.90
14934;DHT22;7560;51.364;12.384;2023-02-23T01:48:21;7.80;99.90
14934;DHT22;7560;51.364;12.384;2023-02-23T01:53:26;7.80;99.90
14934;DHT22;7560;51.364;12.384;2023-02-23T01:58:30;7.90;99.90
14934;DHT22;7560;51.364;12.384;2023-02-23T02:03:37;7.80;99.90
14934;DHT22;7560;51.364;12.384;2023-02-23T02:08:44;7.80;99.90
14934;DHT22;7560;51.364;12.384;2023-02-23T02:13:47;7.80;99.90
14934;DHT22;7560;51.364;12.384;2023-02-23T02:19:29;7.80;99.90
14934;DHT22;7560;51.364;12.384;2023-02-23T02:40:33;7.80;99.90
14934;DHT22;7560;51.364;12.384;2023-02-23T02:51:06;7.90;99.90
14934;DHT22;7560;51.364;12.384;2023-02-23T02:56:15;8.00;99.90
14934;DHT22;7560;51.364;12.384;2023-02-23T03:01:20;8.00;99.90
14934;DHT22;7560;51.364;12.384;2023-02-23T03:07:03;8.00;99.90
14934;DHT22;7560;51.364;12.384;2023-02-23T03:12:54;8.10;99.90
14934;DHT22;7560;51.364;12.384;2023-02-23T03:24:01;8.20;99.90
14934;DHT22;7560;51.364;12.384;2023-02-23T03:29:39;8.20;99.90
14934;DHT22;7560;51.364;12.384;2023-02-23T03:35:13;8.30;99.90
14934;DHT22;7560;51.364;12.384;2023-02-23T03:40:38;8.40;99.90
14934;DHT22;7560;51.364;12.384;2023-02-23T03:46:00;8.30;99.90
14934;DHT22;7560;51.364;12.384;2023-02-23T03:51:23;8.40;99.90
14934;DHT22;7560;51.364;12.384;2023-02-23T03:56:50;8.50;99.90
14934;DHT22;7560;51.364;12.384;2023-02-23T04:02:12;8.60;99.90
14934;DHT22;7560;51.364;12.384;2023-02-23T04:07:36;8.60;99.90
14934;DHT22;7560;51.364;12.384;2023-02-23T04:18:30;8.80;99.90
14934;DHT22;7560;51.364;12.384;2023-02-23T04:23:34;8.90;99.90
14934;DHT22;7560;51.364;12.384;2023-02-23T04:28:36;8.90;99.90
14934;DHT22;7560;51.364;12.384;2023-02-23T04:33:38;9.00;99.90
14934;DHT22;7560;51.364;12.384;2023-02-23T04:38:42;9.00;99.90
14934;DHT22;7560;51.364;12.384;2023-02-23T04:43:47;9.10;99.90
14934;DHT22;7560;51.364;12.384;2023-02-23T04:48:49;9.10;99.90
14934;DHT22;7560;51.364;12.384;2023-02-23T04:53:51;9.10;99.90
14934;DHT22;7560;51.364;12.384;2023-02-23T04:58:53;9.20;99.90
14934;DHT22;7560;51.364;12.384;2023-02-23T05:03:55;9.20;99.90
14934;DHT22;7560;51.364;12.384;2023-02-23T05:08:57;9.20;99.90
14934;DHT22;7560;51.364;12.384;2023-02-23T05:14:00;9.30;99.90
14934;DHT22;7560;51.364;12.384;2023-02-23T05:19:02;9.40;99.90
14934;DHT22;7560;51.364;12.384;2023-02-23T05:24:04;9.40;99.90
14934;DHT22;7560;51.364;12.384;2023-02-23T05:29:06;9.30;99.90
14934;DHT22;7560;51.364;12.384;2023-02-23T05:34:08;9.30;99.90
14934;DHT22;7560;51.364;12.384;2023-02-23T05:39:10;9.20;99.90
14934;DHT22;7560;51.364;12.384;2023-02-23T05:44:12;9.10;99.90
14934;DHT22;7560;51.364;12.384;2023-02-23T05:49:14;9.10;99.90
14934;DHT22;7560;51.364;12.384;2023-02-23T05:54:16;9.10;99.90
14934;DHT22;7560;51.364;12.384;2023-02-23T05:59:18;9.10;99.90
14934;DHT22;7560;51.364;12.384;2023-02-23T06:04:20;9.10;99.90
14934;DHT22;7560;51.364;12.384;2023-02-23T06:09:24;9.10;99.90
14934;DHT22;7560;51.364;12.384;2023-02-23T06:14:26;9.10;99.90
14934;DHT22;7560;51.364;12.384;2023-02-23T06:19:29;9.00;99.90
14934;DHT22;7560;51.364;12.384;2023-02-23T06:24:34;9.00;99.90
14934;DHT22;7560;51.364;12.384;2023-02-23T06:29:36;9.00;99.90
14934;DHT22;7560;51.364;12.384;2023-02-23T06:34:38;9.00;99.90
14934;DHT22;7560;51.364;12.384;2023-02-23T06:39:41;9.10;99.90
14934;DHT22;7560;51.364;12.384;2023-02-23T06:44:43;9.20;99.90
14934;DHT22;7560;51.364;12.384;2023-02-23T06:49:45;9.10;99.90
14934;DHT22;7560;51.364;12.384;2023-02-23T06:54:48;9.30;99.90
14934;DHT22;7560;51.364;12.384;2023-02-23T06:59:51;9.40;99.90
14934;DHT22;7560;51.364;12.384;2023-02-23T07:04:53;9.50;99.90
14934;DHT22;7560;51.364;12.384;2023-02-23T07:09:57;9.60;99.90
14934;DHT22;7560;51.364;12.384;2023-02-23T07:14:59;9.60;99.90
14934;DHT22;7560;51.364;12.384;2023-02-23T07:20:01;9.70;99.90
14934;DHT22;7560;51.364;12.384;2023-02-23T07:25:05;9.80;99.90
14934;DHT22;7560;51.364;12.384;2023-02-23T07:30:08;9.90;99.90
14934;DHT22;7560;51.364;12.384;2023-02-23T07:35:12;9.90;99.90
14934;DHT22;7560;51.364;12.384;2023-02-23T07:40:16;10.00;99.90
14934;DHT22;7560;51.364;12.384;2023-02-23T07:45:18;10.20;99.90
14934;DHT22;7560;51.364;12.384;2023-02-23T07:50:20;10.30;99.90
14934;DHT22;7560;51.364;12.384;2023-02-23T07:55:22;10.40;99.90
14934;DHT22;7560;51.364;12.384;2023-02-23T08:00:24;10.60;99.90
14934;DHT22;7560;51.364;12.384;2023-02-23T08:05:27;10.70;99.90
14934;DHT22;7560;51.364;12.384;2023-02-23T08:10:29;10.80;99.90
14934;DHT22;7560;51.364;12.384;2023-02-23T08:15:31;10.90;99.90
14934;DHT22;7560;51.364;12.384;2023-02-23T08:20:34;11.00;99.90
14934;DHT22;7560;51.364;12.384;2023-02-23T08:25:36;11.20;99.90
14934;DHT22;7560;51.364;12.384;2023-02-23T08:30:39;11.30;99.90
14934;DHT22;7560;51.364;12.384;2023-02-23T08:35:42;11.40;99.90
14934;DHT22;7560;51.364;12.384;2023-02-23T08:40:46;11.50;99.90
14934;DHT22;7560;51.364;12.384;2023-02-23T08:45:48;11.60;99.90
14934;DHT22;7560;51.364;12.384;2023-02-23T08:50:54;11.80;99.90
14934;DHT22;7560;51.364;12.384;2023-02-23T08:56:01;12.00;99.90
14934;DHT22;7560;51.364;12.384;2023-02-23T09:01:04;12.10;99.90
14934;DHT22;7560;51.364;12.384;2023-02-23T09:06:10;12.20;99.90
14934;DHT22;7560;51.364;12.384;2023-02-23T09:11:13;12.40;99.90
14934;DHT22;7560;51.364;12.384;2023-02-23T09:16:15;12.60;99.90
14934;DHT22;7560;51.364;12.384;2023-02-23T09:21:19;12.70;99.90
14934;DHT22;7560;51.364;12.384;2023-02-23T09:26:23;12.90;99.90
14934;DHT22;7560;51.364;12.384;2023-02-23T09:31:27;13.10;99.90
14934;DHT22;7560;51.364;12.384;2023-02-23T09:36:29;13.30;99.90
14934;DHT22;7560;51.364;12.384;2023-02-23T09:41:52;13.40;99.90
14934;DHT22;7560;51.364;12.384;2023-02-23T09:52:21;13.60;99.90
14934;DHT22;7560;51.364;12.384;2023-02-23T09:57:38;13.60;99.90
14934;DHT22;7560;51.364;12.384;2023-02-23T10:03:07;13.60;99.90
14934;DHT22;7560;51.364;12.384;2023-02-23T10:19:27;13.80;99.90
14934;DHT22;7560;51.364;12.384;2023-02-23T10:24:36;13.90;99.90
14934;DHT22;7560;51.364;12.384;2023-02-23T10:29:46;14.00;99.90
14934;DHT22;7560;51.364;12.384;2023-02-23T10:34:52;14.00;99.90
14934;DHT22;7560;51.364;12.384;2023-02-23T10:39:54;14.00;99.90
14934;DHT22;7560;51.364;12.384;2023-02-23T10:44:57;14.10;99.90
14934;DHT22;7560;51.364;12.384;2023-02-23T10:50:00;14.30;99.90
14934;DHT22;7560;51.364;12.384;2023-02-23T10:55:06;14.30;99.90
14934;DHT22;7560;51.364;12.384;2023-02-23T11:05:34;14.70;99.90
14934;DHT22;7560;51.364;12.384;2023-02-23T11:10:37;14.80;99.90
14934;DHT22;7560;51.364;12.384;2023-02-23T11:15:39;14.00;99.90
14934;DHT22;7560;51.364;12.384;2023-02-23T11:20:52;14.40;99.90
14934;DHT22;7560;51.364;12.384;2023-02-23T11:26:01;14.50;99.90
14934;DHT22;7560;51.364;12.384;2023-02-23T11:31:19;13.60;99.90
14934;DHT22;7560;51.364;12.384;2023-02-23T11:36:30;14.10;99.90
14934;DHT22;7560;51.364;12.384;2023-02-23T11:41:34;14.60;99.90
14934;DHT22;7560;51.364;12.384;2023-02-23T11:46:37;14.50;99.90
14934;DHT22;7560;51.364;12.384;2023-02-23T11:51:46;14.60;99.90
14934;DHT22;7560;51.364;12.384;2023-02-23T11:56:49;15.00;99.90
14934;DHT22;7560;51.364;12.384;2023-02-23T12:01:55;15.10;99.90
14934;DHT22;7560;51.364;12.384;2023-02-23T12:12:31;14.50;99.90
14934;DHT22;7560;51.364;12.384;2023-02-23T12:17:45;14.70;99.90
14934;DHT22;7560;51.364;12.384;2023-02-23T12:23:02;14.90;99.90
14934;DHT22;7560;51.364;12.384;2023-02-23T12:33:43;14.80;99.90
14934;DHT22;7560;51.364;12.384;2023-02-23T12:38:53;14.60;99.90
14934;DHT22;7560;51.364;12.384;2023-02-23T12:44:11;14.40;99.90
14934;DHT22;7560;51.364;12.384;2023-02-23T12:49:24;14.80;99.90
14934;DHT22;7560;51.364;12.384;2023-02-23T12:54:31;14.90;99.90
14934;DHT22;7560;51.364;12.384;2023-02-23T12:59:50;14.80;99.90
14934;DHT22;7560;51.364;12.384;2023-02-23T13:21:08;14.30;99.90
14934;DHT22;7560;51.364;12.384;2023-02-23T13:26:26;14.30;99.90
14934;DHT22;7560;51.364;12.384;2023-02-23T13:31:38;14.30;99.90
14934;DHT22;7560;51.364;12.384;2023-02-23T13:36:44;13.90;99.90
14934;DHT22;7560;51.364;12.384;2023-02-23T13:47:11;13.80;99.90
14934;DHT22;7560;51.364;12.384;2023-02-23T13:57:42;13.70;99.90
14934;DHT22;7560;51.364;12.384;2023-02-23T14:02:45;13.60;99.90
14934;DHT22;7560;51.364;12.384;2023-02-23T14:08:00;14.00;99.90
14934;DHT22;7560;51.364;12.384;2023-02-23T14:38:44;14.20;99.90
14934;DHT22;7560;51.364;12.384;2023-02-23T14:43:54;14.00;99.90
14934;DHT22;7560;51.364;12.384;2023-02-23T14:49:08;14.00;99.90
14934;DHT22;7560;51.364;12.384;2023-02-23T14:54:31;14.00;99.90
14934;DHT22;7560;51.364;12.384;2023-02-23T14:59:41;14.00;99.90
14934;DHT22;7560;51.364;12.384;2023-02-23T15:04:47;13.80;99.90
14934;DHT22;7560;51.364;12.384;2023-02-23T15:09:50;13.70;99.90
14934;DHT22;7560;51.364;12.384;2023-02-23T15:14:58;13.50;99.90
14934;DHT22;7560;51.364;12.384;2023-02-23T15:20:05;13.50;99.90
14934;DHT22;7560;51.364;12.384;2023-02-23T15:25:24;13.40;99.90
14934;DHT22;7560;51.364;12.384;2023-02-23T15:30:30;13.40;99.90
14934;DHT22;7560;51.364;12.384;2023-02-23T15:41:03;13.00;99.90
14934;DHT22;7560;51.364;12.384;2023-02-23T15:46:20;12.90;99.90
14934;DHT22;7560;51.364;12.384;2023-02-23T15:51:51;12.40;99.90
14934;DHT22;7560;51.364;12.384;2023-02-23T15:57:06;12.30;99.90
14934;DHT22;7560;51.364;12.384;2023-02-23T16:02:17;12.10;99.90
14934;DHT22;7560;51.364;12.384;2023-02-23T16:07:25;11.80;99.90
14934;DHT22;7560;51.364;12.384;2023-02-23T16:12:35;11.70;99.90
14934;DHT22;7560;51.364;12.384;2023-02-23T16:17:46;11.60;99.90
14934;DHT22;7560;51.364;12.384;2023-02-23T16:22:49;11.60;99.90
14934;DHT22;7560;51.364;12.384;2023-02-23T16:28:01;11.50;99.90
14934;DHT22;7560;51.364;12.384;2023-02-23T16:38:40;11.50;99.90
14934;DHT22;7560;51.364;12.384;2023-02-23T16:43:43;11.40;99.90
14934;DHT22;7560;51.364;12.384;2023-02-23T16:48:47;11.40;99.90
14934;DHT22;7560;51.364;12.384;2023-02-23T16:53:50;11.30;99.90
14934;DHT22;7560;51.364;12.384;2023-02-23T16:59:01;11.20;99.90
14934;DHT22;7560;51.364;12.384;2023-02-23T17:04:04;11.10;99.90
14934;DHT22;7560;51.364;12.384;2023-02-23T17:09:09;11.20;99.90
14934;DHT22;7560;51.364;12.384;2023-02-23T17:14:23;11.00;99.90
14934;DHT22;7560;51.364;12.384;2023-02-23T17:19:29;11.10;99.90
14934;DHT22;7560;51.364;12.384;2023-02-23T17:24:33;11.10;99.90
14934;DHT22;7560;51.364;12.384;2023-02-23T17:29:35;11.00;99.90
14934;DHT22;7560;51.364;12.384;2023-02-23T17:34:37;11.20;99.90
14934;DHT22;7560;51.364;12.384;2023-02-23T17:39:41;11.30;99.90
14934;DHT22;7560;51.364;12.384;2023-02-23T17:44:43;11.10;99.90
14934;DHT22;7560;51.364;12.384;2023-02-23T17:49:47;11.00;99.90
14934;DHT22;7560;51.364;12.384;2023-02-23T17:54:54;11.10;99.90
14934;DHT22;7560;51.364;12.384;2023-02-23T17:59:59;11.10;99.90
14934;DHT22;7560;51.364;12.384;2023-02-23T18:05:01;10.90;99.90
14934;DHT22;7560;51.364;12.384;2023-02-23T18:10:11;10.80;99.90
14934;DHT22;7560;51.364;12.384;2023-02-23T18:15:15;10.90;99.90
14934;DHT22;7560;51.364;12.384;2023-02-23T18:20:20;11.00;99.90
14934;DHT22;7560;51.364;12.384;2023-02-23T18:25:28;10.90;99.90
14934;DHT22;7560;51.364;12.384;2023-02-23T18:30:30;10.80;99.90
14934;DHT22;7560;51.364;12.384;2023-02-23T18:35:33;10.70;99.90
14934;DHT22;7560;51.364;12.384;2023-02-23T18:40:38;10.70;99.90
14934;DHT22;7560;51.364;12.384;2023-02-23T18:45:41;10.60;99.90
14934;DHT22;7560;51.364;12.384;2023-02-23T18:50:44;10.50;99.90
14934;DHT22;7560;51.364;12.384;2023-02-23T18:55:47;10.30;99.90
14934;DHT22;7560;51.364;12.384;2023-02-23T19:00:51;10.30;99.90
14934;DHT22;7560;51.364;12.384;2023-02-23T19:05:55;10.20;99.90
14934;DHT22;7560;51.364;12.384;2023-02-23T19:10:59;10.10;99.90
14934;DHT22;7560;51.364;12.384;2023-02-23T19:16:06;10.00;99.90
14934;DHT22;7560;51.364;12.384;2023-02-23T19:21:09;9.80;99.90
14934;DHT22;7560;51.364;12.384;2023-02-23T19:26:13;10.00;99.90
14934;DHT22;7560;51.364;12.384;2023-02-23T19:31:28;9.90;99.90
14934;DHT22;7560;51.364;12.384;2023-02-23T19:36:33;10.00;99.90
14934;DHT22;7560;51.364;12.384;2023-02-23T19:41:40;10.00;99.90
14934;DHT22;7560;51.364;12.384;2023-02-23T19:46:42;9.90;99.90
14934;DHT22;7560;51.364;12.384;2023-02-23T19:51:49;9.80;99.90
14934;DHT22;7560;51.364;12.384;2023-02-23T19:56:53;9.80;99.90
14934;DHT22;7560;51.364;12.384;2023-02-23T20:02:04;9.80;99.90
14934;DHT22;7560;51.364;12.384;2023-02-23T20:07:06;9.80;99.90
14934;DHT22;7560;51.364;12.384;2023-02-23T20:12:18;9.90;99.90
14934;DHT22;7560;51.364;12.384;2023-02-23T20:17:34;9.70;99.90
14934;DHT22;7560;51.364;12.384;2023-02-23T20:22:37;9.60;99.90
14934;DHT22;7560;51.364;12.384;2023-02-23T20:27:43;9.60;99.90
14934;DHT22;7560;51.364;12.384;2023-02-23T20:32:47;9.50;99.90
14934;DHT22;7560;51.364;12.384;2023-02-23T20:37:49;9.60;99.90
14934;DHT22;7560;51.364;12.384;2023-02-23T20:42:54;9.50;99.90
14934;DHT22;7560;51.364;12.384;2023-02-23T20:47:58;9.50;99.90
14934;DHT22;7560;51.364;12.384;2023-02-23T20:53:03;9.50;99.90
14934;DHT22;7560;51.364;12.384;2023-02-23T20:58:06;9.40;99.90
14934;DHT22;7560;51.364;12.384;2023-02-23T21:03:10;9.30;99.90
14934;DHT22;7560;51.364;12.384;2023-02-23T21:08:17;9.40;99.90
14934;DHT22;7560;51.364;12.384;2023-02-23T21:13:19;9.40;99.90
14934;DHT22;7560;51.364;12.384;2023-02-23T21:18:24;9.40;99.90
14934;DHT22;7560;51.364;12.384;2023-02-23T21:23:27;9.50;99.90
14934;DHT22;7560;51.364;12.384;2023-02-23T21:28:29;9.30;99.90
14934;DHT22;7560;51.364;12.384;2023-02-23T21:33:32;9.20;99.90
14934;DHT22;7560;51.364;12.384;2023-02-23T21:38:37;9.10;99.90
14934;DHT22;7560;51.364;12.384;2023-02-23T21:43:42;9.20;99.90
14934;DHT22;7560;51.364;12.384;2023-02-23T21:48:44;9.30;99.90
14934;DHT22;7560;51.364;12.384;2023-02-23T21:53:46;9.30;99.90
14934;DHT22;7560;51.364;12.384;2023-02-23T21:58:53;9.30;99.90
14934;DHT22;7560;51.364;12.384;2023-02-23T22:03:56;9.30;99.90
14934;DHT22;7560;51.364;12.384;2023-02-23T22:08:58;9.20;99.90
14934;DHT22;7560;51.364;12.384;2023-02-23T22:14:02;9.10;99.90
14934;DHT22;7560;51.364;12.384;2023-02-23T22:19:07;9.20;99.90
14934;DHT22;7560;51.364;12.384;2023-02-23T22:24:14;9.10;99.90
14934;DHT22;7560;51.364;12.384;2023-02-23T22:29:21;9.00;99.90
14934;DHT22;7560;51.364;12.384;2023-02-23T22:34:23;8.90;99.90
14934;DHT22;7560;51.364;12.384;2023-02-23T22:39:27;8.80;99.90
14934;DHT22;7560;51.364;12.384;2023-02-23T22:44:36;8.70;99.90
14934;DHT22;7560;51.364;12.384;2023-02-23T22:49:41;8.80;99.90
14934;DHT22;7560;51.364;12.384;2023-02-23T22:54:59;8.80;99.90
14934;DHT22;7560;51.364;12.384;2023-02-23T23:00:01;8.60;99.90
14934;DHT22;7560;51.364;12.384;2023-02-23T23:05:08;8.60;99.90
14934;DHT22;7560;51.364;12.384;2023-02-23T23:10:14;8.70;99.90
14934;DHT22;7560;51.364;12.384;2023-02-23T23:15:18;8.60;99.90
14934;DHT22;7560;51.364;12.384;2023-02-23T23:20:21;8.60;99.90
14934;DHT22;7560;51.364;12.384;2023-02-23T23:25:26;8.70;99.90
14934;DHT22;7560;51.364;12.384;2023-02-23T23:30:33;8.70;99.90
14934;DHT22;7560;51.364;12.384;2023-02-23T23:35:45;8.70;99.90
14934;DHT22;7560;51.364;12.384;2023-02-23T23:40:49;8.60;99.90
14934;DHT22;7560;51.364;12.384;2023-02-23T23:45:54;8.60;99.90
14934;DHT22;7560;51.364;12.384;2023-02-23T23:51:01;8.60;99.90
14934;DHT22;7560;51.364;12.384;2023-02-23T23:56:07;8.70;99.90
